Latest Weather Observations for Argyle

IDD60801

Issued at 7:31 pm CST Sunday 25 January 2015 (issued every 30 minutes, with the page automatically refreshed every 10 minutes)

About weather observations | Map of weather stations | Latest weather observations for NT | Other Formats
Station Details ID: 002064 Name: ARGYLE AERODROME Lat: -16.64 Lon: 128.45 Height: 164.0 m
Data from the previous 72 hours. | See also: Recent months at Argyle
Date/Time
CST
Temp
°C
App
Temp
°C
Dew
Point
Rel
Hum
%
Delta-T
°C
Wind Press
QNH
hPa
Press
MSL
hPa
Rain
since 9 am
mm
Dir
 
Spd
km/h
Gust
km/h
Spd
kts
Gust
kts
25/07:00pm 26.1 28.7 21.9 77 2.8 E 11 17 6 9 1007.4 - 0.0
25/06:35pm 29.2 27.6 20.1 58 6.0 SE 28 46 15 25 1008.4 - 0.0
25/06:30pm 30.2 29.9 20.3 55 6.6 ESE 22 37 12 20 1008.1 - 0.0
25/06:00pm 31.5 32.7 20.6 52 7.3 NW 15 19 8 10 1006.3 - 0.0
25/05:30pm 31.8 32.0 20.6 51 7.5 N 20 30 11 16 1006.0 - 0.0
25/05:00pm 32.8 32.0 20.1 47 8.5 N 24 33 13 18 1006.0 - 0.0
25/04:30pm 33.3 34.0 19.6 44 9.1 NNW 15 19 8 10 1005.8 1004.5 0.0
25/04:00pm 33.0 32.1 18.1 41 9.7 WNW 20 30 11 16 1006.0 - 0.0
25/03:30pm 37.4 37.4 20.9 38 11.3 W 22 28 12 15 1006.4 - 0.0
25/03:00pm 36.4 37.4 21.0 40 10.5 SSW 17 22 9 12 1006.5 - 0.0
25/02:30pm 37.0 38.6 21.4 40 10.7 S 15 20 8 11 1007.1 - 0.0
25/02:00pm 36.4 38.9 21.0 40 10.5 S 9 19 5 10 1007.8 - 0.0
25/01:30pm 36.7 38.5 21.2 40 10.6 S 13 20 7 11 1008.4 1007.1 0.0
25/01:00pm 36.1 39.2 21.5 42 10.0 SSE 7 13 4 7 1008.8 - 0.0
25/12:30pm 35.6 37.9 21.4 43 9.7 S 11 20 6 11 1009.2 - 0.0
25/12:00pm 35.5 38.0 21.8 45 9.4 SSW 11 20 6 11 1009.7 - 0.0
25/11:30am 34.9 46.0 34.8 99 0.1 S 17 26 9 14 1010.1 - 0.0
25/11:00am 34.4 45.9 34.4 100 0.0 S 13 22 7 12 1010.1 - 0.0
25/10:30am 33.8 45.5 33.8 100 0.0 S 9 13 5 7 1010.2 1008.9 0.0
25/10:00am 33.2 44.9 33.2 100 0.0 SE 6 9 3 5 1010.2 - 0.0
25/09:30am 32.3 43.1 32.3 100 0.0 ESE 6 11 3 6 1009.7 - 0.0
25/08:30am 31.0 40.0 30.9 99 0.1 E 9 11 5 6 1009.2 - 0.0
25/07:00am 28.3 35.3 28.3 100 0.0 S 9 11 5 6 1008.1 - 0.0
25/06:30am 28.3 35.9 28.3 100 0.0 SE 6 7 3 4 1007.5 - 0.0
25/06:00am 28.9 36.7 28.9 100 0.0 S 7 9 4 5 1007.2 - 0.0
25/05:30am 29.1 37.3 29.1 100 0.0 NW 6 7 3 4 1006.9 - 0.0
25/05:00am 29.1 38.0 29.1 100 0.0 N 2 7 1 4 1006.5 - 0.0
25/04:30am 29.4 37.2 29.4 100 0.0 NNW 9 11 5 6 1005.8 1004.5 0.0
25/04:00am 29.5 37.8 29.5 100 0.0 N 7 9 4 5 1005.8 - 0.0
25/03:30am 29.8 37.6 29.8 100 0.0 N 11 15 6 8 1005.6 - 0.0
25/03:14am 30.0 37.5 30.0 100 0.0 N 13 20 7 11 1005.7 - 0.0
25/03:04am 30.0 37.2 30.0 100 0.0 N 15 20 8 11 1005.7 - 0.0
25/03:00am 30.1 37.3 30.1 100 0.0 N 15 20 8 11 1005.7 - 0.0
25/02:30am 30.3 38.5 30.3 100 0.0 NNW 11 15 6 8 1006.1 - 0.0
25/02:00am 30.4 38.6 30.4 100 0.0 NW 11 15 6 8 1006.3 - 0.0
25/01:00am 30.9 39.6 30.9 100 0.0 NW 11 13 6 7 1007.2 - 0.0
25/12:30am 31.5 40.7 31.5 100 0.0 NNW 11 15 6 8 1007.3 - 0.0
25/12:00am 30.3 38.8 30.2 99 0.1 WNW 9 11 5 6 1007.4 - 0.0
 
Date/Time
CST
Temp
°C
App
Temp
°C
Dew
Point
Rel
Hum
%
Delta-T
°C
Wind Press
QNH
hPa
Press
MSL
hPa
Rain
since 9 am
mm
Dir
 
Spd
km/h
Gust
km/h
Spd
kts
Gust
kts
24/11:30pm 31.3 42.4 31.3 100 0.0 CALM 0 6 0 3 1007.4 - 0.0
24/09:00pm 34.2 38.1 21.8 48 8.5 NW 4 7 2 4 1006.6 - 0.0
24/08:30pm 34.2 36.1 19.7 42 9.7 SW 9 13 5 7 1006.1 - 0.0
24/08:00pm 34.6 35.5 18.5 38 10.6 NNE 11 13 6 7 1005.1 - 0.0
24/07:30pm 34.7 35.8 18.8 39 10.5 NNE 11 13 6 7 1004.8 1003.5 0.0
24/07:00pm 35.1 36.4 19.4 39 10.4 NNE 11 13 6 7 1004.6 - 0.0
24/06:30pm 36.0 37.8 19.6 38 11.0 NNE 9 11 5 6 1004.4 - 0.0
24/06:00pm 37.2 38.9 18.5 33 12.4 ENE 7 13 4 7 1004.3 - 0.0
24/05:30pm 38.6 40.0 17.9 29 13.6 SSE 7 11 4 6 1003.8 - 0.0
24/05:00pm 38.7 39.6 17.6 29 13.9 E 9 13 5 7 1003.8 - 0.0
24/04:30pm 38.4 39.3 16.7 28 14.1 ESE 7 9 4 5 1004.0 1002.7 0.0
24/04:00pm 39.0 39.6 16.7 27 14.5 SSE 9 15 5 8 1004.5 - 0.0
24/03:30pm 38.6 39.7 16.6 27 14.2 SSE 6 9 3 5 1005.0 - 0.0
24/03:00pm 38.7 40.6 18.6 31 13.4 E 6 11 3 6 1005.3 - 0.0
24/02:30pm 38.5 38.9 17.3 28 13.9 ESE 11 20 6 11 1005.8 - 0.0
24/02:00pm 37.5 39.3 19.5 35 12.1 NW 9 13 5 7 1006.2 - 0.0
24/01:30pm 37.2 40.0 20.4 37 11.4 SE 6 9 3 5 1006.6 1005.3 0.0
24/01:00pm 36.8 38.9 20.1 37 11.3 NW 9 15 5 8 1006.8 - 0.0
24/12:30pm 36.4 37.7 19.3 36 11.4 NW 11 19 6 10 1007.2 - 0.0
24/12:00pm 36.5 37.0 19.3 36 11.5 NW 15 19 8 10 1007.6 - 0.0
24/11:30am 35.9 37.2 20.2 40 10.6 W 13 19 7 10 1008.0 - 0.0
24/11:00am 35.7 37.8 20.1 40 10.5 W 9 15 5 8 1008.2 - 0.0
24/10:30am 34.7 36.9 20.3 43 9.7 WSW 9 17 5 9 1008.3 1007.0 0.0
24/10:00am 33.5 38.0 22.3 52 7.7 NW 2 9 1 5 1008.3 - 0.0
24/09:30am 32.5 36.1 22.0 54 7.2 WNW 6 9 3 5 1008.2 - 0.0
24/09:00am 31.8 35.8 21.3 53 7.1 SW 2 7 1 4 1008.1 - 0.0
24/08:30am 31.1 35.4 21.2 55 6.7 CALM 0 0 0 0 1007.9 - 0.0
24/08:00am 29.9 33.8 20.3 56 6.4 CALM 0 0 0 0 1007.7 - 0.0
24/07:30am 28.1 32.1 20.6 63 5.0 CALM 0 0 0 0 1007.5 1006.2 0.0
24/07:00am 27.0 31.0 20.5 67 4.3 CALM 0 0 0 0 1007.0 - 0.0
24/06:30am 28.1 30.0 19.0 57 5.9 SW 7 9 4 5 1006.5 - 0.0
24/06:00am 28.5 30.1 18.3 54 6.6 S 7 9 4 5 1006.2 - 0.0
24/05:30am 27.7 30.1 19.6 61 5.3 SW 6 7 3 4 1005.7 - 0.0
24/05:00am 27.3 29.5 20.5 66 4.5 W 9 11 5 6 1005.5 - 0.0
24/04:30am 28.2 29.4 19.0 57 6.0 NNW 11 13 6 7 1005.4 1004.1 0.0
24/04:00am 28.1 31.1 20.8 64 4.9 NW 6 7 3 4 1005.4 - 0.0
24/03:30am 28.2 30.8 20.4 62 5.2 WNW 7 9 4 5 1005.5 - 0.0
24/03:00am 28.3 30.3 20.0 60 5.5 W 9 9 5 5 1005.5 - 0.0
24/02:30am 28.9 30.7 19.6 57 6.1 WSW 9 11 5 6 1005.4 - 0.0
24/02:00am 29.3 31.1 19.6 56 6.4 WSW 9 11 5 6 1005.6 - 0.0
24/01:30am 28.6 30.8 20.5 61 5.4 WNW 9 11 5 6 1005.8 1004.5 0.0
24/01:00am 28.7 30.7 20.8 62 5.3 WNW 11 13 6 7 1006.3 - 0.0
24/12:30am 29.2 32.0 20.8 60 5.6 WNW 7 9 4 5 1006.5 - 0.0
24/12:00am 29.3 31.6 20.6 59 5.8 W 9 11 5 6 1006.7 - 0.0
 
Date/Time
CST
Temp
°C
App
Temp
°C
Dew
Point
Rel
Hum
%
Delta-T
°C
Wind Press
QNH
hPa
Press
MSL
hPa
Rain
since 9 am
mm
Dir
 
Spd
km/h
Gust
km/h
Spd
kts
Gust
kts
23/11:41pm 29.6 32.1 20.3 57 6.2 W 7 9 4 5 1006.8 - 0.0
23/11:30pm 29.9 32.3 20.1 55 6.5 WNW 7 9 4 5 1006.9 - 0.0
23/11:22pm 29.8 31.9 20.2 56 6.4 W 9 11 5 6 1007.0 - 0.0
23/11:00pm 29.9 31.7 19.6 54 6.8 W 9 9 5 5 1007.2 - 0.0
23/10:30pm 30.0 32.2 20.4 56 6.4 NW 9 11 5 6 1007.2 1005.9 0.0
23/10:00pm 29.9 32.6 21.3 60 5.8 WNW 9 13 5 7 1007.3 - 0.0
23/09:30pm 31.6 32.2 18.6 46 8.5 N 13 15 7 8 1007.0 - 0.0
23/09:00pm 31.7 33.9 20.3 50 7.6 N 9 13 5 7 1006.7 - 0.0
23/08:30pm 32.2 33.8 19.9 48 8.2 N 11 13 6 7 1006.4 - 0.0
23/08:00pm 32.5 34.7 20.4 49 8.1 NNW 9 13 5 7 1005.7 - 0.0
23/07:30pm 32.9 33.6 18.0 41 9.7 NNE 11 13 6 7 1005.2 1003.9 0.0
23/07:00pm 33.4 34.5 18.8 42 9.6 NNE 11 13 6 7 1004.6 - 0.0
23/06:30pm 34.6 34.8 16.7 34 11.5 NNE 11 15 6 8 1004.2 - 0.0
23/06:00pm 35.3 34.8 15.8 31 12.4 N 13 17 7 9 1003.8 - 0.0
23/05:30pm 35.8 35.3 15.0 29 13.1 N 11 13 6 7 1003.5 - 0.0
23/05:00pm 36.1 35.5 14.6 27 13.4 N 11 15 6 8 1003.8 - 0.0
23/04:30pm 36.6 37.1 14.9 27 13.7 ESE 6 9 3 5 1004.0 1002.7 0.0
23/04:00pm 36.3 35.5 13.0 24 14.2 N 9 13 5 7 1004.3 - 0.0
23/03:30pm 37.1 36.9 13.6 24 14.5 WNW 7 11 4 6 1004.5 - 0.0
23/03:00pm 36.3 35.1 12.7 24 14.4 NNW 11 17 6 9 1004.9 - 0.0
23/02:30pm 37.0 37.0 14.3 26 14.2 ENE 7 13 4 7 1004.9 - 0.0
23/02:00pm 36.4 36.2 13.1 24 14.3 NNW 6 11 3 6 1005.1 - 0.0
23/01:30pm 36.5 36.9 13.8 25 14.1 NE 4 9 2 5 1005.4 1004.1 0.0
23/01:00pm 36.3 36.4 12.7 24 14.4 ENE 4 9 2 5 1005.7 - 0.0
23/12:30pm 35.8 35.1 12.1 24 14.3 SW 7 13 4 7 1006.3 - 0.0
23/12:00pm 35.6 35.7 14.0 27 13.4 S 6 11 3 6 1006.6 - 0.0
23/11:30am 34.8 35.0 14.6 29 12.6 SSW 7 11 4 6 1006.9 - 0.0
23/11:00am 33.9 35.2 17.5 37 10.6 SSE 7 11 4 6 1007.0 - 0.0
23/10:30am 32.7 34.3 18.3 42 9.4 S 7 11 4 6 1007.2 1005.9 0.0
23/10:00am 31.8 33.6 18.7 45 8.6 S 7 11 4 6 1007.3 - 0.0
23/09:30am 30.9 33.3 20.1 52 7.2 S 7 11 4 6 1007.5 - 0.0
23/09:00am 30.2 32.9 20.3 55 6.6 SSE 6 9 3 5 1007.7 - 0.0
23/08:30am 29.1 31.3 19.5 56 6.3 S 7 11 4 6 1007.3 - 0.0
23/08:00am 28.6 30.9 19.4 57 6.0 SSW 6 9 3 5 1007.0 - 0.0
23/07:30am 27.2 30.1 20.6 67 4.4 W 6 7 3 4 1007.1 1005.8 0.0
23/07:00am 26.0 28.4 20.9 73 3.4 WSW 9 11 5 6 1006.5 - 0.0
23/06:30am 26.0 28.9 20.7 72 3.5 WSW 6 7 3 4 1006.3 - 0.0
23/06:00am 27.5 28.9 17.8 55 6.2 SSE 7 7 4 4 1005.7 - 0.0
23/05:30am 28.0 29.7 18.4 56 6.2 SSE 7 9 4 5 1006.0 - 0.0
23/05:00am 28.2 30.1 19.0 57 6.0 SSE 7 9 4 5 1005.7 - 0.0
23/04:30am 28.0 30.2 19.6 60 5.5 SE 7 9 4 5 1006.0 1004.6 0.0
23/04:00am 28.4 30.7 19.9 60 5.6 ESE 7 7 4 4 1006.0 - 0.0
23/03:30am 28.7 31.6 21.1 63 5.1 E 7 9 4 5 1005.7 - 0.0
23/03:00am 29.8 31.6 19.5 54 6.8 ENE 9 11 5 6 1005.2 - 0.0
23/02:30am 29.2 32.5 21.8 64 5.0 WSW 7 7 4 4 1005.1 - 0.0
23/02:00am 29.9 33.5 22.0 62 5.4 WSW 6 7 3 4 1005.0 - 0.0
23/01:30am 30.2 34.9 22.0 61 5.6 CALM 0 4 0 2 1005.2 1003.9 0.0
23/01:00am 30.5 33.1 20.5 55 6.7 N 7 9 4 5 1005.2 - 0.0
23/12:30am 30.8 32.6 19.6 51 7.4 SE 9 11 5 6 1005.3 - 0.0
23/12:00am 31.4 33.5 19.4 49 7.9 SE 7 11 4 6 1005.6 - 0.0
 
Date/Time
CST
Temp
°C
App
Temp
°C
Dew
Point
Rel
Hum
%
Delta-T
°C
Wind Press
QNH
hPa
Press
MSL
hPa
Rain
since 9 am
mm
Dir
 
Spd
km/h
Gust
km/h
Spd
kts
Gust
kts
22/11:30pm 32.3 32.9 18.5 44 9.0 SE 13 19 7 10 1005.7 - 0.0
22/11:00pm 33.1 34.1 19.4 44 9.1 SSE 13 17 7 9 1005.7 - 0.0
22/10:30pm 33.1 35.7 22.0 52 7.6 SSE 11 15 6 8 1005.6 1004.3 0.0
22/10:00pm 32.6 36.6 23.8 59 6.2 SE 9 13 5 7 1005.2 - 0.0
22/09:30pm 32.9 36.6 23.9 59 6.3 W 11 11 6 6 1004.7 - 0.0

Other Formats:

Comma delimited format used in spreadsheet applications
http://www.bom.gov.au/fwo/IDD60801/IDD60801.94217.axf

JavaScript Object Notation format (JSON) in row-major order
http://www.bom.gov.au/fwo/IDD60801/IDD60801.94217.json